Time;durP1;ratioP1;P1;durP2;ratioP2;P2;SDS_P1;SDS_P2;PMS_P1;PMS_P2;Temp;Humidity;BMP_temperature;BMP_pressure;BME280_temperature;BME280_humidity;BME280_pressure;Samples;Min_cycle;Max_cycle;Signal;HPM_P1;HPM_P2
2021/01/25 00:00:20;;;;;;;7.38;1.70;;;0.00;99.90;;;;;;4932484;29;20052;-74
2021/01/25 00:02:47;;;;;;;5.50;1.77;;;0.10;99.90;;;;;;4933940;29;20123;-74
2021/01/25 00:05:14;;;;;;;4.35;1.58;;;0.10;99.90;;;;;;4932107;29;20072;-74
2021/01/25 00:07:41;;;;;;;3.63;1.50;;;0.20;99.90;;;;;;4939917;28;20094;-74
2021/01/25 00:10:08;;;;;;;4.35;1.45;;;0.20;99.90;;;;;;4931691;29;20455;-74
2021/01/25 00:12:35;;;;;;;3.97;1.73;;;0.20;99.90;;;;;;4937068;29;20065;-74
2021/01/25 00:15:02;;;;;;;7.45;1.40;;;0.20;99.90;;;;;;4931784;29;20134;-74
2021/01/25 00:17:28;;;;;;;6.20;1.98;;;0.10;99.90;;;;;;4935568;28;20191;-74
2021/01/25 00:19:55;;;;;;;4.95;1.60;;;0.10;99.90;;;;;;4946719;28;20130;-74
2021/01/25 00:22:22;;;;;;;4.28;1.48;;;0.20;99.90;;;;;;4937211;29;20934;-75
2021/01/25 00:24:49;;;;;;;4.22;1.92;;;0.20;99.90;;;;;;4936461;29;20130;-74
2021/01/25 00:27:15;;;;;;;6.53;1.60;;;0.20;99.90;;;;;;4937909;28;20082;-74
2021/01/25 00:29:41;;;;;;;4.85;1.88;;;0.20;99.90;;;;;;4931959;29;20054;-74
2021/01/25 00:32:08;;;;;;;6.32;1.67;;;0.20;99.90;;;;;;4930827;29;20050;-74
2021/01/25 00:34:34;;;;;;;3.70;1.38;;;0.30;99.90;;;;;;4925094;29;20090;-74
2021/01/25 00:37:01;;;;;;;4.07;1.48;;;0.20;99.90;;;;;;4924573;29;20089;-74
2021/01/25 00:39:27;;;;;;;4.93;1.85;;;0.20;99.90;;;;;;4923523;29;20130;-74
2021/01/25 00:41:53;;;;;;;4.10;1.45;;;0.20;99.90;;;;;;4929558;29;20530;-74
2021/01/25 00:44:20;;;;;;;6.82;3.00;;;0.20;99.90;;;;;;4938847;29;20082;-74
2021/01/25 00:46:46;;;;;;;6.57;2.90;;;0.20;99.90;;;;;;4946901;28;20091;-74
2021/01/25 00:49:13;;;;;;;5.53;2.10;;;0.20;99.90;;;;;;4930324;29;20068;-74
2021/01/25 00:51:39;;;;;;;6.00;2.05;;;0.30;99.90;;;;;;4932245;29;20079;-74
2021/01/25 00:54:07;;;;;;;5.32;2.60;;;0.30;99.90;;;;;;4931299;29;20134;-74
2021/01/25 00:56:33;;;;;;;3.35;1.55;;;0.30;99.90;;;;;;4948322;29;20408;-73
2021/01/25 00:59:00;;;;;;;3.83;1.67;;;0.30;99.90;;;;;;4941028;28;20130;-73
2021/01/25 01:01:26;;;;;;;5.43;1.55;;;0.30;99.90;;;;;;4936670;29;20043;-74
2021/01/25 01:03:53;;;;;;;4.05;1.75;;;0.30;99.90;;;;;;4938751;29;20494;-74
2021/01/25 01:06:19;;;;;;;5.55;2.00;;;0.30;99.90;;;;;;4944644;29;20082;-73
2021/01/25 01:08:45;;;;;;;6.25;2.72;;;0.30;99.90;;;;;;4934360;29;20098;-73
2021/01/25 01:11:12;;;;;;;6.60;2.20;;;0.30;99.90;;;;;;4962778;28;20044;-74
2021/01/25 01:13:39;;;;;;;5.45;2.72;;;0.30;99.90;;;;;;4932537;29;20451;-74
2021/01/25 01:16:05;;;;;;;6.20;2.35;;;0.30;99.90;;;;;;4932605;29;20054;-74
2021/01/25 01:18:34;;;;;;;5.80;2.92;;;0.30;99.90;;;;;;4930158;29;20649;-74
2021/01/25 01:21:03;;;;;;;6.78;2.70;;;0.40;99.90;;;;;;4935505;29;20051;-74
2021/01/25 01:23:29;;;;;;;6.22;2.47;;;0.30;99.90;;;;;;4941439;28;20146;-74
2021/01/25 01:25:56;;;;;;;6.40;2.33;;;0.30;99.90;;;;;;4936315;29;20048;-74
2021/01/25 01:28:22;;;;;;;5.13;1.92;;;0.30;99.90;;;;;;4931811;29;20178;-74
2021/01/25 01:30:48;;;;;;;6.18;2.22;;;0.30;99.90;;;;;;4945782;28;20079;-75
2021/01/25 01:33:15;;;;;;;4.85;2.33;;;0.30;99.90;;;;;;4936077;28;20044;-74
2021/01/25 01:35:41;;;;;;;5.47;2.40;;;0.40;99.90;;;;;;4931652;29;20060;-73
2021/01/25 01:38:08;;;;;;;4.35;2.25;;;0.40;99.90;;;;;;4929187;29;20071;-73
2021/01/25 01:40:34;;;;;;;5.47;3.22;;;0.40;99.90;;;;;;4947166;28;20059;-74
2021/01/25 01:43:01;;;;;;;5.28;2.05;;;0.40;99.90;;;;;;4927134;29;20079;-73
2021/01/25 01:45:27;;;;;;;5.70;2.75;;;0.30;99.90;;;;;;4932751;29;20139;-73
2021/01/25 01:47:55;;;;;;;5.20;2.38;;;0.40;99.90;;;;;;4937390;29;20130;-73
2021/01/25 01:50:22;;;;;;;4.03;2.00;;;0.40;99.90;;;;;;4946565;29;20139;-73
2021/01/25 01:52:49;;;;;;;4.43;2.28;;;0.50;99.90;;;;;;4940701;28;20052;-73
2021/01/25 01:55:15;;;;;;;9.27;1.98;;;0.50;99.90;;;;;;4945082;28;20144;-73
2021/01/25 01:57:43;;;;;;;4.53;2.15;;;0.40;99.90;;;;;;4934350;29;20048;-73
2021/01/25 02:00:10;;;;;;;5.28;2.60;;;0.50;99.90;;;;;;4944476;29;20506;-73
2021/01/25 02:02:36;;;;;;;6.13;3.13;;;0.40;99.90;;;;;;4950353;29;20146;-73
2021/01/25 02:05:03;;;;;;;5.90;2.78;;;0.50;99.90;;;;;;4939464;29;20107;-74
2021/01/25 02:07:31;;;;;;;6.63;2.42;;;0.50;99.90;;;;;;4934824;29;20071;-73
2021/01/25 02:09:59;;;;;;;4.63;2.25;;;0.50;99.90;;;;;;4935403;29;20054;-73
2021/01/25 02:12:26;;;;;;;5.40;2.25;;;0.60;99.90;;;;;;4932899;29;20054;-73
2021/01/25 02:14:53;;;;;;;6.20;2.80;;;0.60;99.90;;;;;;4940693;28;20185;-73
2021/01/25 02:17:19;;;;;;;5.60;2.40;;;0.50;99.90;;;;;;4935812;28;20062;-73
2021/01/25 02:19:59;;;;;;;5.10;2.80;;;0.50;99.90;;;;;;4944749;28;20093;-72
2021/01/25 02:22:37;;;;;;;5.55;2.80;;;0.50;99.90;;;;;;4947751;29;20047;-73
2021/01/25 02:25:36;;;;;;;4.65;2.50;;;0.60;99.90;;;;;;4939330;29;20081;-73
2021/01/25 02:28:03;;;;;;;5.57;2.65;;;0.60;99.90;;;;;;4940825;28;20098;-73
2021/01/25 02:30:31;;;;;;;5.82;2.75;;;0.70;99.90;;;;;;4936044;29;20123;-72
2021/01/25 02:32:59;;;;;;;6.45;3.50;;;0.60;99.90;;;;;;4935277;29;20123;-72
2021/01/25 02:35:27;;;;;;;4.70;2.90;;;0.60;99.90;;;;;;4939433;29;20534;-73
2021/01/25 02:37:55;;;;;;;6.20;3.33;;;0.60;99.90;;;;;;4946358;28;20051;-73
2021/01/25 02:40:24;;;;;;;6.75;2.63;;;0.70;99.90;;;;;;4951507;28;20055;-73
2021/01/25 02:42:53;;;;;;;7.70;2.95;;;0.70;99.90;;;;;;4947581;29;20106;-73
2021/01/25 02:45:22;;;;;;;11.93;3.15;;;0.70;99.90;;;;;;4933730;29;20087;-72
2021/01/25 02:47:50;;;;;;;7.95;3.03;;;0.70;99.90;;;;;;4933039;29;20069;-73
2021/01/25 02:50:16;;;;;;;5.43;3.05;;;0.70;99.90;;;;;;4934004;29;20403;-73
2021/01/25 02:52:43;;;;;;;8.38;3.38;;;0.80;99.90;;;;;;4933721;29;20081;-74
2021/01/25 02:55:10;;;;;;;6.55;2.95;;;0.70;99.90;;;;;;4936532;29;20135;-73
2021/01/25 02:57:38;;;;;;;4.90;2.85;;;0.70;99.90;;;;;;4936871;29;20597;-74
2021/01/25 03:00:07;;;;;;;7.65;3.55;;;0.80;99.90;;;;;;4933882;29;20131;-74
2021/01/25 03:02:35;;;;;;;5.25;3.03;;;0.70;99.90;;;;;;4942269;29;20617;-74
2021/01/25 03:05:05;;;;;;;5.65;2.92;;;0.80;99.90;;;;;;4933020;29;20056;-74
2021/01/25 03:07:32;;;;;;;5.25;3.38;;;0.80;99.90;;;;;;4935538;29;20142;-74
2021/01/25 03:10:00;;;;;;;5.95;3.13;;;0.80;99.90;;;;;;4943439;29;20554;-74
2021/01/25 03:12:27;;;;;;;6.00;3.08;;;0.80;99.90;;;;;;4937328;29;20127;-74
2021/01/25 03:14:54;;;;;;;8.75;3.60;;;0.90;99.90;;;;;;4933997;29;20047;-73
2021/01/25 03:17:21;;;;;;;7.85;2.63;;;0.90;99.90;;;;;;4942230;28;20499;-74
2021/01/25 03:19:48;;;;;;;7.55;3.83;;;0.90;99.90;;;;;;4952104;28;20051;-74
2021/01/25 03:22:14;;;;;;;8.38;4.30;;;0.90;99.90;;;;;;4928506;29;20063;-73
2021/01/25 03:24:40;;;;;;;6.05;3.65;;;0.90;99.90;;;;;;4943711;29;20051;-74
2021/01/25 03:27:07;;;;;;;8.98;3.70;;;0.90;99.90;;;;;;4941244;28;20090;-74
2021/01/25 03:29:33;;;;;;;5.35;3.40;;;0.90;99.90;;;;;;4934472;29;20135;-75
2021/01/25 03:32:00;;;;;;;7.57;4.05;;;0.90;99.90;;;;;;4941343;29;20180;-74
2021/01/25 03:34:27;;;;;;;7.25;3.28;;;0.90;99.90;;;;;;4942637;28;20127;-74
2021/01/25 03:36:54;;;;;;;6.10;3.08;;;0.90;99.90;;;;;;4932417;29;20518;-74
2021/01/25 03:39:20;;;;;;;6.20;3.28;;;0.90;99.90;;;;;;4936732;29;20487;-74
2021/01/25 03:41:47;;;;;;;7.25;3.75;;;0.90;99.90;;;;;;4933545;29;20088;-74
2021/01/25 03:44:16;;;;;;;9.48;3.80;;;0.90;99.90;;;;;;4933341;29;20138;-74
2021/01/25 03:46:46;;;;;;;6.05;3.70;;;1.00;99.90;;;;;;4930799;29;20490;-74
2021/01/25 03:49:16;;;;;;;9.43;4.18;;;0.90;99.90;;;;;;4932514;29;20057;-74
2021/01/25 03:51:43;;;;;;;7.25;3.78;;;0.90;99.90;;;;;;4933363;29;20558;-75
2021/01/25 03:54:13;;;;;;;7.93;4.05;;;0.90;99.90;;;;;;4931744;29;20047;-74
2021/01/25 03:56:40;;;;;;;8.82;3.60;;;0.90;99.90;;;;;;4942481;29;20067;-73
2021/01/25 03:59:07;;;;;;;9.75;3.45;;;0.90;99.90;;;;;;4935331;29;20054;-73
2021/01/25 04:01:33;;;;;;;6.15;3.70;;;0.90;99.90;;;;;;4910173;29;20087;-74
2021/01/25 04:04:00;;;;;;;7.22;3.80;;;0.90;99.90;;;;;;4932822;29;20047;-74
2021/01/25 04:06:26;;;;;;;5.53;3.47;;;0.90;99.90;;;;;;4931273;29;20086;-73
2021/01/25 04:08:53;;;;;;;7.15;3.80;;;0.90;99.90;;;;;;4926462;29;20919;-74
2021/01/25 04:11:19;;;;;;;5.97;3.33;;;0.80;99.90;;;;;;4936534;28;20074;-73
2021/01/25 04:13:46;;;;;;;6.82;3.92;;;0.90;99.90;;;;;;4931359;29;20075;-74
2021/01/25 04:16:12;;;;;;;9.93;3.92;;;0.80;99.90;;;;;;4932595;29;20075;-74
2021/01/25 04:18:38;;;;;;;6.30;3.78;;;0.80;99.90;;;;;;4933705;29;20455;-74
2021/01/25 04:21:05;;;;;;;5.85;3.38;;;0.80;99.90;;;;;;4947808;28;20062;-74
2021/01/25 04:23:31;;;;;;;11.10;3.83;;;0.80;99.90;;;;;;4937162;28;20047;-74
2021/01/25 04:25:57;;;;;;;8.25;3.83;;;0.80;99.90;;;;;;4933853;29;20047;-73
2021/01/25 04:28:24;;;;;;;5.93;3.72;;;0.80;99.90;;;;;;4931274;29;20514;-73
2021/01/25 04:30:50;;;;;;;9.95;4.35;;;0.70;99.90;;;;;;4936711;29;20134;-73
2021/01/25 04:33:17;;;;;;;6.05;3.70;;;0.70;99.90;;;;;;4946693;28;20043;-73
2021/01/25 04:35:43;;;;;;;7.75;4.63;;;0.60;99.90;;;;;;4931490;29;20425;-73
2021/01/25 04:38:10;;;;;;;9.35;4.18;;;0.60;99.90;;;;;;4934060;29;20044;-73
2021/01/25 04:40:37;;;;;;;10.50;5.47;;;0.60;99.90;;;;;;4938688;29;20075;-73
2021/01/25 04:43:04;;;;;;;8.63;4.72;;;0.60;99.90;;;;;;4931730;29;20504;-73
2021/01/25 04:45:31;;;;;;;9.98;4.93;;;0.60;99.90;;;;;;4934197;29;20135;-73
2021/01/25 04:47:59;;;;;;;10.50;4.65;;;0.60;99.90;;;;;;4930720;29;20055;-73
2021/01/25 04:50:26;;;;;;;8.63;5.13;;;0.70;99.90;;;;;;4929578;29;20039;-73
2021/01/25 04:52:53;;;;;;;10.30;5.57;;;0.60;99.90;;;;;;4931380;29;20475;-73
2021/01/25 04:55:20;;;;;;;7.97;5.07;;;0.60;99.90;;;;;;4935655;29;20079;-73
2021/01/25 04:57:47;;;;;;;9.57;5.55;;;0.50;99.90;;;;;;4931818;29;20171;-73
2021/01/25 05:00:18;;;;;;;8.35;4.95;;;0.50;99.90;;;;;;4928674;29;20052;-73
2021/01/25 05:02:45;;;;;;;10.57;6.63;;;0.50;99.90;;;;;;4930612;29;20102;-74
2021/01/25 05:05:12;;;;;;;6.75;4.53;;;0.60;99.90;;;;;;4931682;29;20119;-73
2021/01/25 05:07:38;;;;;;;13.48;6.97;;;0.50;99.90;;;;;;4930428;29;20079;-73
2021/01/25 05:10:07;;;;;;;8.43;4.97;;;0.50;99.90;;;;;;4931129;29;20106;-73
2021/01/25 05:12:41;;;;;;;10.65;5.55;;;0.50;99.90;;;;;;4938196;29;20051;-73
2021/01/25 05:15:09;;;;;;;8.68;5.25;;;0.40;99.90;;;;;;4930201;29;20118;-72
2021/01/25 05:17:36;;;;;;;9.48;5.93;;;0.50;99.90;;;;;;4928598;29;20075;-73
2021/01/25 05:20:07;;;;;;;7.38;4.68;;;0.60;99.90;;;;;;4926209;29;20095;-73
2021/01/25 05:22:38;;;;;;;9.35;6.28;;;0.60;99.90;;;;;;4931955;29;20047;-73
2021/01/25 05:25:08;;;;;;;8.82;5.40;;;0.70;99.90;;;;;;4936059;29;20586;-73
2021/01/25 05:27:35;;;;;;;8.13;4.18;;;0.60;99.90;;;;;;4929303;29;20177;-73
2021/01/25 05:30:11;;;;;;;8.27;5.05;;;0.60;99.90;;;;;;4933115;29;20134;-73
2021/01/25 05:33:03;;;;;;;9.38;5.72;;;0.50;99.90;;;;;;4931922;29;20055;-74
2021/01/25 05:35:32;;;;;;;12.30;6.63;;;0.50;99.90;;;;;;4935664;28;20071;-73
2021/01/25 05:38:09;;;;;;;9.27;5.40;;;0.50;99.90;;;;;;4949939;28;20214;-73
2021/01/25 05:40:39;;;;;;;9.85;6.22;;;0.50;99.90;;;;;;4933360;29;20094;-73
2021/01/25 05:43:14;;;;;;;13.57;7.25;;;0.50;99.90;;;;;;4930615;29;20477;-72
2021/01/25 05:45:40;;;;;;;12.80;6.07;;;0.60;99.90;;;;;;4934240;29;20931;-73
2021/01/25 05:48:07;;;;;;;10.45;5.78;;;0.60;99.90;;;;;;4931526;29;20157;-73
2021/01/25 05:50:41;;;;;;;7.88;4.82;;;0.60;99.90;;;;;;4929678;29;20442;-73
2021/01/25 05:53:09;;;;;;;7.25;4.55;;;0.60;99.90;;;;;;4931533;29;20048;-73
2021/01/25 05:55:36;;;;;;;11.25;5.60;;;0.60;99.90;;;;;;4935471;29;20107;-73
2021/01/25 05:58:04;;;;;;;7.25;4.07;;;0.70;99.90;;;;;;4931150;29;20114;-73
2021/01/25 06:00:32;;;;;;;6.95;4.45;;;0.70;99.90;;;;;;4930544;29;20490;-73
2021/01/25 06:02:59;;;;;;;7.72;4.40;;;0.70;99.90;;;;;;4935160;29;20169;-73
2021/01/25 06:05:32;;;;;;;9.05;5.22;;;0.70;99.90;;;;;;4938983;28;20194;-73
2021/01/25 06:08:28;;;;;;;8.18;4.78;;;0.70;99.90;;;;;;4935787;29;20130;-73
2021/01/25 06:11:16;;;;;;;9.93;5.63;;;0.70;99.90;;;;;;4936970;28;20652;-73
2021/01/25 06:14:08;;;;;;;10.65;5.75;;;0.70;99.90;;;;;;4932861;28;20048;-73
2021/01/25 06:16:35;;;;;;;10.63;5.82;;;0.70;99.90;;;;;;4944415;28;20087;-73
2021/01/25 06:19:04;;;;;;;8.40;5.70;;;0.70;99.90;;;;;;4931544;29;20066;-73
2021/01/25 06:21:33;;;;;;;9.32;5.68;;;0.70;99.90;;;;;;4936788;29;20086;-73
2021/01/25 06:24:02;;;;;;;9.27;5.85;;;0.60;99.90;;;;;;4920229;29;20514;-73
2021/01/25 06:26:33;;;;;;;9.10;4.72;;;0.60;99.90;;;;;;4931350;29;20210;-73
2021/01/25 06:29:07;;;;;;;7.90;5.15;;;0.60;99.90;;;;;;4932262;29;20181;-73
2021/01/25 06:31:34;;;;;;;8.60;5.20;;;0.50;99.90;;;;;;4929287;29;20163;-73
2021/01/25 06:34:03;;;;;;;7.60;5.05;;;0.60;99.90;;;;;;4925643;29;20508;-73
2021/01/25 06:36:31;;;;;;;8.45;5.80;;;0.70;99.90;;;;;;4931362;29;20114;-74
2021/01/25 06:38:58;;;;;;;10.75;7.03;;;0.70;99.90;;;;;;4931228;29;20056;-73
2021/01/25 06:41:34;;;;;;;8.38;5.65;;;0.70;99.90;;;;;;4951669;28;20141;-73
2021/01/25 06:44:00;;;;;;;9.95;6.10;;;0.70;99.90;;;;;;4934118;29;20047;-73
2021/01/25 06:46:31;;;;;;;15.45;7.05;;;0.70;99.90;;;;;;4930139;29;20482;-73
2021/01/25 06:48:58;;;;;;;9.80;6.70;;;0.60;99.90;;;;;;4936268;29;20051;-73
2021/01/25 06:51:27;;;;;;;11.65;7.20;;;0.70;99.90;;;;;;4953951;28;20051;-73
2021/01/25 06:53:54;;;;;;;10.07;6.68;;;0.70;99.90;;;;;;4933700;29;20082;-73
2021/01/25 06:56:20;;;;;;;9.85;6.97;;;0.80;99.90;;;;;;4936893;29;20119;-73
2021/01/25 06:58:49;;;;;;;12.32;8.27;;;0.90;99.90;;;;;;4936622;28;20083;-73
2021/01/25 07:01:19;;;;;;;13.02;7.63;;;0.80;99.90;;;;;;4938635;29;20079;-73
2021/01/25 07:03:57;;;;;;;10.00;6.90;;;0.90;99.90;;;;;;4934966;29;20082;-73
2021/01/25 07:06:43;;;;;;;11.43;7.35;;;0.80;99.90;;;;;;4932548;29;20122;-73
2021/01/25 07:09:10;;;;;;;11.52;7.70;;;0.80;99.90;;;;;;4932327;29;20123;-73
2021/01/25 07:11:36;;;;;;;15.10;9.35;;;0.80;99.90;;;;;;4933450;29;20086;-73
2021/01/25 07:14:03;;;;;;;12.75;8.25;;;0.80;99.90;;;;;;4915738;29;20545;-72
2021/01/25 07:16:30;;;;;;;13.68;9.07;;;0.80;99.90;;;;;;4932591;29;20044;-73
2021/01/25 07:18:56;;;;;;;10.27;6.35;;;0.90;99.90;;;;;;4934135;29;20067;-73
2021/01/25 07:21:27;;;;;;;14.05;10.18;;;0.90;99.90;;;;;;4933208;29;20055;-73
2021/01/25 07:23:58;;;;;;;13.15;8.57;;;1.00;99.90;;;;;;4933512;29;20134;-72
2021/01/25 07:26:25;;;;;;;15.23;9.05;;;0.90;99.90;;;;;;4929102;29;20051;-72
2021/01/25 07:28:51;;;;;;;13.65;8.82;;;1.00;99.90;;;;;;4933865;29;20082;-72
2021/01/25 07:31:17;;;;;;;12.20;8.35;;;1.00;99.90;;;;;;4932142;29;20414;-73
2021/01/25 07:33:44;;;;;;;11.18;7.32;;;1.00;99.90;;;;;;4947101;28;20043;-73
2021/01/25 07:36:11;;;;;;;12.38;8.02;;;1.00;99.90;;;;;;4929891;29;20514;-73
2021/01/25 07:38:37;;;;;;;11.75;7.22;;;1.00;99.90;;;;;;4939906;28;20095;-73
2021/01/25 07:41:04;;;;;;;10.65;7.22;;;1.00;99.90;;;;;;4930673;29;20098;-73
2021/01/25 07:43:31;;;;;;;12.50;6.40;;;1.00;99.90;;;;;;4932073;29;20103;-73
2021/01/25 07:46:09;;;;;;;6.70;4.50;;;1.00;99.90;;;;;;4928374;29;20040;-72
2021/01/25 07:48:48;;;;;;;5.75;4.00;;;1.00;99.90;;;;;;4945825;29;20363;-73
2021/01/25 07:51:23;;;;;;;7.88;4.63;;;1.00;99.90;;;;;;4932410;29;20063;-73
2021/01/25 07:53:50;;;;;;;6.35;4.28;;;1.00;99.90;;;;;;4927466;29;20531;-73
2021/01/25 07:56:18;;;;;;;6.40;3.53;;;1.00;99.90;;;;;;4931288;29;20048;-73
2021/01/25 07:58:45;;;;;;;7.45;4.50;;;1.00;99.90;;;;;;4941984;28;20098;-73
2021/01/25 08:01:16;;;;;;;6.10;3.83;;;0.90;99.90;;;;;;4932905;29;20507;-73
2021/01/25 08:03:44;;;;;;;6.13;4.10;;;0.90;99.90;;;;;;4931943;29;20129;-72
2021/01/25 08:06:35;;;;;;;6.72;4.32;;;0.90;99.90;;;;;;4931749;29;20098;-73
2021/01/25 08:09:04;;;;;;;4.95;3.30;;;1.00;99.90;;;;;;4931126;29;20114;-73
2021/01/25 08:11:32;;;;;;;6.05;4.18;;;1.00;99.90;;;;;;4932409;29;20082;-72
2021/01/25 08:14:23;;;;;;;6.18;3.97;;;0.90;99.90;;;;;;4931769;29;20479;-72
2021/01/25 08:17:04;;;;;;;6.70;4.30;;;1.00;99.90;;;;;;4929466;29;20099;-72
2021/01/25 08:19:40;;;;;;;7.70;4.55;;;1.00;99.90;;;;;;4931066;29;20520;-72
2021/01/25 08:22:21;;;;;;;7.50;4.55;;;1.10;99.90;;;;;;4924360;29;20044;-73
2021/01/25 08:24:59;;;;;;;7.85;4.50;;;1.20;99.90;;;;;;4930025;29;20079;-73
2021/01/25 08:27:26;;;;;;;6.97;4.10;;;1.30;99.90;;;;;;4930941;29;20458;-73
2021/01/25 08:30:04;;;;;;;6.10;3.90;;;1.30;99.90;;;;;;4931857;29;20075;-73
2021/01/25 08:32:51;;;;;;;6.13;4.05;;;1.30;99.90;;;;;;4928117;29;20111;-71
2021/01/25 08:35:31;;;;;;;6.30;3.80;;;1.30;99.90;;;;;;4926878;29;20048;-72
2021/01/25 08:38:31;;;;;;;5.65;3.42;;;1.30;99.90;;;;;;4918330;29;20056;-71
2021/01/25 08:41:14;;;;;;;5.88;3.67;;;1.30;99.90;;;;;;4927488;29;20107;-72
2021/01/25 08:43:41;;;;;;;7.80;4.43;;;1.30;99.90;;;;;;4928158;29;20074;-73
2021/01/25 08:46:13;;;;;;;6.38;4.43;;;1.30;99.90;;;;;;4928503;29;20145;-73
2021/01/25 08:48:41;;;;;;;8.73;5.28;;;1.30;99.90;;;;;;4925227;29;20529;-73
2021/01/25 08:51:11;;;;;;;7.38;4.63;;;1.40;99.90;;;;;;4932012;29;20114;-73
2021/01/25 08:53:38;;;;;;;8.15;5.72;;;1.40;99.90;;;;;;4929677;29;20055;-73
2021/01/25 08:56:14;;;;;;;7.55;5.10;;;1.50;99.90;;;;;;4931098;29;20350;-73
2021/01/25 08:58:41;;;;;;;7.95;5.10;;;1.50;99.90;;;;;;4937860;28;20102;-73
2021/01/25 09:01:28;;;;;;;8.30;4.40;;;1.50;99.90;;;;;;4928328;29;20071;-73
2021/01/25 09:03:58;;;;;;;7.75;5.05;;;1.60;99.90;;;;;;4926913;29;20406;-73
2021/01/25 09:06:26;;;;;;;6.10;4.20;;;1.70;99.90;;;;;;4930710;29;20137;-74
2021/01/25 09:08:52;;;;;;;6.78;5.07;;;1.70;99.90;;;;;;4930786;29;20075;-73
2021/01/25 09:11:18;;;;;;;6.53;4.22;;;1.80;99.90;;;;;;4930833;29;20052;-73
2021/01/25 09:13:45;;;;;;;11.30;5.57;;;1.80;99.90;;;;;;4930546;29;20475;-73
2021/01/25 09:16:11;;;;;;;9.15;5.18;;;1.90;99.90;;;;;;4930893;29;20083;-73
2021/01/25 09:18:37;;;;;;;11.35;7.30;;;2.10;99.90;;;;;;4930230;29;20043;-73
2021/01/25 09:21:04;;;;;;;10.90;5.93;;;2.10;99.90;;;;;;4928910;29;20066;-73
2021/01/25 09:23:30;;;;;;;6.65;4.45;;;2.20;99.90;;;;;;4929836;29;20558;-73
2021/01/25 09:25:56;;;;;;;9.95;5.40;;;2.10;99.90;;;;;;4929208;29;20114;-72
2021/01/25 09:28:23;;;;;;;8.02;5.15;;;2.00;99.90;;;;;;4931515;29;20051;-73
2021/01/25 09:30:49;;;;;;;9.35;5.57;;;2.10;99.90;;;;;;4928616;29;20459;-73
2021/01/25 09:33:15;;;;;;;9.73;6.05;;;2.20;99.90;;;;;;4932091;29;20090;-73
2021/01/25 09:35:43;;;;;;;8.95;5.38;;;2.20;99.90;;;;;;4930785;29;20060;-72
2021/01/25 09:38:09;;;;;;;13.40;4.72;;;2.20;99.90;;;;;;4933483;29;20067;-72
2021/01/25 09:40:36;;;;;;;9.93;5.85;;;2.20;99.90;;;;;;4930411;29;20063;-72
2021/01/25 09:43:03;;;;;;;7.72;5.38;;;2.30;99.90;;;;;;4946694;29;20083;-72
2021/01/25 09:45:29;;;;;;;9.98;4.90;;;2.60;99.90;;;;;;4928664;29;20483;-72
2021/01/25 09:47:56;;;;;;;8.25;5.38;;;2.70;99.90;;;;;;4931275;28;20087;-72
2021/01/25 09:50:23;;;;;;;8.13;4.25;;;2.80;99.90;;;;;;4927614;29;20044;-72
2021/01/25 09:52:50;;;;;;;8.25;4.82;;;2.80;99.90;;;;;;4929856;29;20483;-73
2021/01/25 09:55:17;;;;;;;9.93;4.93;;;3.00;99.90;;;;;;4943292;28;20044;-72
2021/01/25 09:57:44;;;;;;;7.95;5.05;;;3.00;99.90;;;;;;4929064;29;20043;-72
2021/01/25 10:00:12;;;;;;;6.38;4.32;;;3.00;99.90;;;;;;4931144;29;20068;-73
2021/01/25 10:02:38;;;;;;;7.53;4.82;;;3.10;99.90;;;;;;4927082;29;20060;-73
2021/01/25 10:05:06;;;;;;;5.43;3.83;;;3.10;99.90;;;;;;4926128;29;20425;-74
2021/01/25 10:07:36;;;;;;;10.90;4.60;;;3.10;99.90;;;;;;4928906;29;20182;-74
2021/01/25 10:10:09;;;;;;;6.13;4.38;;;2.90;99.90;;;;;;4930120;29;20523;-74
2021/01/25 10:12:35;;;;;;;11.90;5.78;;;2.80;99.90;;;;;;4931487;29;20146;-75
2021/01/25 10:15:02;;;;;;;9.13;5.80;;;2.90;99.90;;;;;;4914324;29;20071;-74
2021/01/25 10:17:29;;;;;;;7.50;4.70;;;2.90;99.90;;;;;;4931862;29;20123;-73
2021/01/25 10:19:56;;;;;;;7.28;4.88;;;3.00;99.90;;;;;;4934119;29;20055;-73
2021/01/25 10:22:23;;;;;;;14.68;6.10;;;2.90;99.90;;;;;;4932829;29;20419;-73
2021/01/25 10:24:49;;;;;;;10.23;6.63;;;3.10;99.90;;;;;;4933714;29;20233;-74
2021/01/25 10:27:16;;;;;;;15.50;10.10;;;3.20;99.90;;;;;;4931845;29;20051;-74
2021/01/25 10:29:43;;;;;;;12.35;7.70;;;3.30;99.90;;;;;;4948584;29;20178;-74
2021/01/25 10:32:16;;;;;;;12.18;7.10;;;3.30;99.90;;;;;;4931774;29;20055;-74
2021/01/25 10:34:44;;;;;;;14.82;8.18;;;3.40;99.90;;;;;;4926868;29;20090;-73
2021/01/25 10:37:10;;;;;;;13.82;8.10;;;3.40;99.90;;;;;;4934607;29;20103;-74
2021/01/25 10:39:37;;;;;;;10.20;6.75;;;3.50;99.90;;;;;;4943377;28;20051;-73
2021/01/25 10:42:03;;;;;;;10.18;6.32;;;3.70;99.90;;;;;;4933402;29;20391;-73
2021/01/25 10:44:30;;;;;;;8.63;5.95;;;3.70;99.90;;;;;;4928448;29;20161;-72
2021/01/25 10:46:56;;;;;;;8.05;4.75;;;3.60;99.90;;;;;;4932515;29;20055;-72
2021/01/25 10:49:22;;;;;;;6.40;4.20;;;3.50;99.90;;;;;;4930095;29;20071;-72
2021/01/25 10:51:48;;;;;;;9.02;5.88;;;3.60;99.90;;;;;;4934096;29;20055;-74
2021/01/25 10:54:22;;;;;;;7.10;4.80;;;3.50;99.90;;;;;;4932417;29;20098;-74
2021/01/25 10:56:49;;;;;;;8.00;4.90;;;3.30;99.90;;;;;;4932475;29;20075;-74
2021/01/25 10:59:16;;;;;;;7.90;5.25;;;3.30;99.90;;;;;;4934829;29;20102;-73
2021/01/25 11:01:42;;;;;;;9.15;5.82;;;3.40;99.90;;;;;;4932933;29;20597;-73
2021/01/25 11:04:09;;;;;;;8.10;5.03;;;3.50;99.90;;;;;;4932520;29;20044;-74
2021/01/25 11:06:35;;;;;;;8.55;5.60;;;3.50;99.90;;;;;;4933565;29;20078;-74
2021/01/25 11:09:02;;;;;;;7.15;3.97;;;3.50;99.90;;;;;;4932080;29;20056;-73
2021/01/25 11:11:28;;;;;;;7.25;4.75;;;3.30;99.90;;;;;;4928364;29;20054;-73
2021/01/25 11:13:55;;;;;;;7.70;4.97;;;3.20;99.90;;;;;;4924421;29;20047;-73
2021/01/25 11:16:21;;;;;;;9.25;5.10;;;3.20;99.90;;;;;;4923007;29;20518;-73
2021/01/25 11:18:48;;;;;;;8.75;5.53;;;3.40;99.90;;;;;;4925006;29;20052;-73
2021/01/25 11:21:15;;;;;;;9.68;5.10;;;3.40;99.90;;;;;;4929860;29;20047;-73
2021/01/25 11:23:41;;;;;;;10.52;6.97;;;3.30;99.90;;;;;;4933356;29;20119;-73
2021/01/25 11:26:08;;;;;;;8.40;6.13;;;3.30;99.90;;;;;;4933747;29;20416;-72
2021/01/25 11:28:34;;;;;;;9.02;5.55;;;3.20;99.90;;;;;;4930880;29;20135;-73
2021/01/25 11:31:04;;;;;;;11.45;6.32;;;3.10;99.90;;;;;;4932829;29;20496;-72
2021/01/25 11:33:30;;;;;;;13.43;8.05;;;3.10;99.90;;;;;;4932087;29;20043;-72
2021/01/25 11:35:57;;;;;;;9.15;6.57;;;3.10;99.90;;;;;;4933336;29;20126;-73
2021/01/25 11:38:26;;;;;;;11.10;7.63;;;3.20;99.90;;;;;;4945817;29;20044;-74
2021/01/25 11:40:52;;;;;;;8.23;5.50;;;3.30;99.90;;;;;;4930431;29;20134;-73
2021/01/25 11:43:19;;;;;;;9.07;5.93;;;3.20;99.90;;;;;;4925594;29;20214;-73
2021/01/25 11:45:45;;;;;;;12.45;7.43;;;3.00;99.90;;;;;;4929315;29;20067;-73
2021/01/25 11:48:11;;;;;;;11.38;5.88;;;2.90;99.90;;;;;;4932984;29;20400;-73
2021/01/25 11:50:38;;;;;;;9.23;5.80;;;2.90;99.90;;;;;;4933718;29;20146;-73
2021/01/25 11:53:04;;;;;;;10.85;6.97;;;3.10;99.90;;;;;;4930565;29;20055;-74
2021/01/25 11:55:31;;;;;;;11.27;7.47;;;3.20;99.90;;;;;;4931938;29;20223;-73
2021/01/25 11:57:57;;;;;;;8.73;5.80;;;3.00;99.90;;;;;;4932219;29;20126;-73
2021/01/25 12:00:26;;;;;;;11.00;6.55;;;2.80;99.90;;;;;;4928640;29;20056;-73
2021/01/25 12:02:53;;;;;;;12.18;8.95;;;2.90;99.90;;;;;;4946919;29;20067;-73
2021/01/25 12:05:20;;;;;;;11.32;7.80;;;3.00;99.90;;;;;;4931121;29;20056;-74
2021/01/25 12:07:46;;;;;;;12.35;8.32;;;3.20;99.90;;;;;;4920427;29;20083;-74
2021/01/25 12:10:13;;;;;;;12.23;7.70;;;3.40;99.90;;;;;;4931936;29;20087;-74
2021/01/25 12:12:40;;;;;;;11.95;8.25;;;3.50;99.90;;;;;;4932298;29;20122;-73
2021/01/25 12:15:07;;;;;;;12.57;7.30;;;3.60;99.90;;;;;;4931835;29;20092;-73
2021/01/25 12:17:33;;;;;;;9.10;6.32;;;3.60;99.90;;;;;;4932294;29;20089;-73
2021/01/25 12:20:00;;;;;;;8.38;5.43;;;3.40;99.90;;;;;;4933082;29;20091;-74
2021/01/25 12:22:26;;;;;;;9.13;5.45;;;3.30;99.90;;;;;;4932424;29;20486;-73
2021/01/25 12:24:53;;;;;;;10.68;5.55;;;3.40;99.90;;;;;;4933139;29;20051;-72
2021/01/25 12:27:19;;;;;;;7.07;5.38;;;3.70;99.90;;;;;;4929844;29;20134;-73
2021/01/25 12:29:45;;;;;;;7.82;5.07;;;3.90;99.90;;;;;;4928374;29;20127;-73
2021/01/25 12:32:12;;;;;;;7.63;5.85;;;4.00;99.90;;;;;;4926670;29;20143;-73
2021/01/25 12:34:38;;;;;;;6.18;4.95;;;4.20;99.90;;;;;;4932502;29;20047;-73
2021/01/25 12:37:05;;;;;;;6.82;4.18;;;4.30;99.90;;;;;;4921615;29;20130;-74
2021/01/25 12:39:31;;;;;;;6.68;4.93;;;3.90;99.90;;;;;;4930147;29;20516;-74
2021/01/25 12:41:57;;;;;;;9.63;5.82;;;3.80;99.90;;;;;;4928421;29;20052;-74
2021/01/25 12:44:24;;;;;;;7.30;4.32;;;3.80;99.90;;;;;;4935488;29;20071;-74
2021/01/25 12:46:50;;;;;;;6.53;3.33;;;3.90;99.90;;;;;;4931976;29;20082;-73
2021/01/25 12:49:19;;;;;;;5.30;3.83;;;4.00;99.90;;;;;;4931484;29;20055;-73
2021/01/25 12:51:46;;;;;;;5.88;3.33;;;4.00;99.90;;;;;;4932078;29;20072;-73
2021/01/25 12:54:13;;;;;;;7.70;3.60;;;3.90;99.90;;;;;;4932558;29;20047;-73
2021/01/25 12:56:39;;;;;;;4.63;3.08;;;4.00;99.90;;;;;;4932042;29;20502;-74
2021/01/25 12:59:06;;;;;;;6.38;3.13;;;3.90;99.90;;;;;;4932656;29;20055;-73
2021/01/25 13:01:32;;;;;;;7.00;3.28;;;3.90;99.90;;;;;;4927308;29;20593;-72